Time;durP1;ratioP1;P1;durP2;ratioP2;P2;SDS_P1;SDS_P2;PMS_P1;PMS_P2;Temp;Humidity;BMP_temperature;BMP_pressure;BME280_temperature;BME280_humidity;BME280_pressure;Samples;Min_cycle;Max_cycle;Signal;HPM_P1;HPM_P2
2021/09/06 00:00:16;;;;;;;;;;;;;;;9.41;60.24;101603.20;468310;111;921513;-73
2021/09/06 00:01:19;;;;;;;;;;;;;;;9.40;60.17;101604.22;468302;111;921557;-75
2021/09/06 00:02:22;;;;;;;;;;;;;;;9.39;60.10;101607.12;469282;111;921437;-73
2021/09/06 00:03:26;;;;;;;;;;;;;;;9.38;60.06;101608.98;467492;111;921600;-74
2021/09/06 00:04:30;;;;;;;;;;;;;;;9.37;59.92;101610.02;467866;111;921573;-74
2021/09/06 00:05:34;;;;;;;;;;;;;;;9.37;59.87;101604.57;467365;111;921558;-74
2021/09/06 00:06:39;;;;;;;;;;;;;;;9.38;59.83;101608.98;469262;111;921555;-74
2021/09/06 00:07:45;;;;;;;;;;;;;;;9.39;59.69;101601.67;468188;111;921544;-73
2021/09/06 00:08:47;;;;;;;;;;;;;;;9.40;59.65;101596.06;468559;111;921473;-73
2021/09/06 00:09:52;;;;;;;;;;;;;;;9.43;59.54;101600.27;469162;111;921548;-73
2021/09/06 00:11:03;;;;;;;;;;;;;;;9.44;59.42;101605.55;468845;111;921777;-74
2021/09/06 00:12:08;;;;;;;;;;;;;;;9.45;59.23;101600.95;467259;111;921625;-74
2021/09/06 00:13:13;;;;;;;;;;;;;;;9.46;59.04;101605.38;467866;111;921581;-74
2021/09/06 00:14:17;;;;;;;;;;;;;;;9.45;58.73;101604.52;468374;111;921596;-74
2021/09/06 00:15:20;;;;;;;;;;;;;;;9.46;58.53;101602.65;467851;111;921516;-74
2021/09/06 00:16:24;;;;;;;;;;;;;;;9.46;58.41;101598.05;468624;111;921741;-74
2021/09/06 00:17:28;;;;;;;;;;;;;;;9.46;58.25;101603.50;466600;111;921658;-72
2021/09/06 00:18:31;;;;;;;;;;;;;;;9.46;58.07;101589.04;467350;111;921526;-73
2021/09/06 00:19:35;;;;;;;;;;;;;;;9.46;57.98;101592.61;468438;111;921642;-74
2021/09/06 00:20:41;;;;;;;;;;;;;;;9.46;57.96;101586.31;468557;111;921743;-74
2021/09/06 00:21:44;;;;;;;;;;;;;;;9.46;57.87;101595.33;469916;111;921546;-73
2021/09/06 00:22:47;;;;;;;;;;;;;;;9.47;57.76;101596.18;466934;111;921832;-73
2021/09/06 00:23:51;;;;;;;;;;;;;;;9.46;57.71;101603.50;468309;111;921511;-73
2021/09/06 00:24:55;;;;;;;;;;;;;;;9.46;57.66;101605.38;469217;111;921549;-74
2021/09/06 00:25:58;;;;;;;;;;;;;;;9.45;57.66;101598.23;470727;111;921555;-74
2021/09/06 00:27:01;;;;;;;;;;;;;;;9.45;57.74;101595.50;472314;111;921507;-74
2021/09/06 00:28:07;;;;;;;;;;;;;;;9.46;57.85;101597.20;471614;112;921528;-74
2021/09/06 00:29:10;;;;;;;;;;;;;;;9.46;57.86;101598.05;472611;112;921732;-74
2021/09/06 00:30:15;;;;;;;;;;;;;;;9.46;57.83;101594.48;471506;111;921572;-74
2021/09/06 00:31:18;;;;;;;;;;;;;;;9.46;57.83;101595.33;472639;112;921601;-75
2021/09/06 00:32:22;;;;;;;;;;;;;;;9.45;57.59;101593.63;471336;111;921584;-75
2021/09/06 00:33:25;;;;;;;;;;;;;;;9.43;57.56;101601.12;463476;112;921582;-73
2021/09/06 00:34:28;;;;;;;;;;;;;;;9.40;57.70;101593.34;463848;112;921536;-73
2021/09/06 00:35:31;;;;;;;;;;;;;;;9.37;57.70;101596.41;463900;113;921598;-73
2021/09/06 00:36:35;;;;;;;;;;;;;;;9.35;57.60;101597.63;465711;114;921533;-74
2021/09/06 00:37:39;;;;;;;;;;;;;;;9.32;57.55;101596.11;463282;114;921655;-73
2021/09/06 00:38:42;;;;;;;;;;;;;;;9.28;57.56;101596.66;464302;112;921767;-73
2021/09/06 00:39:46;;;;;;;;;;;;;;;9.24;57.46;101596.19;461145;114;921668;-73
2021/09/06 00:40:50;;;;;;;;;;;;;;;9.21;57.43;101596.53;472314;112;921594;-74
2021/09/06 00:41:53;;;;;;;;;;;;;;;9.16;57.39;101598.95;472727;112;921632;-72
2021/09/06 00:42:58;;;;;;;;;;;;;;;9.11;57.34;101595.92;472758;111;921569;-75
2021/09/06 00:44:02;;;;;;;;;;;;;;;9.08;57.45;101593.58;473101;111;921684;-74
2021/09/06 00:45:06;;;;;;;;;;;;;;;9.04;57.35;101605.86;472911;112;921548;-74
2021/09/06 00:46:10;;;;;;;;;;;;;;;9.00;57.35;101594.47;472670;112;921821;-75
2021/09/06 00:47:15;;;;;;;;;;;;;;;8.97;57.32;101602.16;471020;111;921601;-72
2021/09/06 00:48:18;;;;;;;;;;;;;;;8.93;57.49;101604.37;470852;112;921490;-74
2021/09/06 00:49:21;;;;;;;;;;;;;;;8.92;57.63;101602.70;472319;112;921761;-74
2021/09/06 00:50:26;;;;;;;;;;;;;;;8.91;57.63;101602.87;473087;111;921640;-74
2021/09/06 00:51:30;;;;;;;;;;;;;;;8.88;57.76;101601.34;471550;111;921554;-74
2021/09/06 00:52:34;;;;;;;;;;;;;;;8.89;57.94;101600.31;463585;114;921467;-74
2021/09/06 00:53:37;;;;;;;;;;;;;;;8.92;58.04;101607.29;461270;115;921625;-74
2021/09/06 00:54:40;;;;;;;;;;;;;;;8.94;58.16;101597.05;462273;115;921588;-75
2021/09/06 00:55:44;;;;;;;;;;;;;;;8.98;58.09;101603.86;466975;113;921667;-73
2021/09/06 00:56:50;;;;;;;;;;;;;;;8.99;58.05;101597.36;463174;114;921560;-74
2021/09/06 00:57:54;;;;;;;;;;;;;;;9.00;58.10;101594.47;464438;114;921634;-74
2021/09/06 00:58:57;;;;;;;;;;;;;;;9.02;58.14;101597.87;463396;113;921495;-74
2021/09/06 01:00:05;;;;;;;;;;;;;;;9.05;58.19;101599.37;472081;112;921613;-74
2021/09/06 01:01:08;;;;;;;;;;;;;;;9.07;58.07;101606.33;463799;114;921666;-74
2021/09/06 01:02:12;;;;;;;;;;;;;;;9.07;57.90;101608.20;463675;112;921618;-73
2021/09/06 01:03:16;;;;;;;;;;;;;;;9.03;57.76;101609.59;465374;112;921477;-74
2021/09/06 01:04:20;;;;;;;;;;;;;;;8.99;57.67;101614.53;459596;114;921611;-74
2021/09/06 01:05:34;;;;;;;;;;;;;;;8.94;57.73;101605.22;460276;113;922224;-75
2021/09/06 01:06:56;;;;;;;;;;;;;;;8.93;57.84;101600.83;472848;111;922147;-74
2021/09/06 01:08:17;;;;;;;;;;;;;;;8.93;57.94;101600.83;472277;112;921508;-74
2021/09/06 01:09:39;;;;;;;;;;;;;;;8.94;58.22;101602.50;472864;111;921613;-75
2021/09/06 01:10:44;;;;;;;;;;;;;;;8.96;58.36;101598.59;468441;111;921531;-74
2021/09/06 01:12:06;;;;;;;;;;;;;;;8.98;58.28;101601.13;464935;112;921518;-73
2021/09/06 01:13:12;;;;;;;;;;;;;;;8.96;58.12;101614.05;462704;114;921539;-75
2021/09/06 01:14:15;;;;;;;;;;;;;;;8.91;58.14;101617.31;471722;111;921643;-75
2021/09/06 01:15:18;;;;;;;;;;;;;;;8.85;58.18;101612.59;472152;112;921482;-74
2021/09/06 01:16:22;;;;;;;;;;;;;;;8.78;58.29;101611.59;472540;112;921752;-75
2021/09/06 01:17:26;;;;;;;;;;;;;;;8.75;58.43;101606.53;470431;111;921776;-75
2021/09/06 01:18:30;;;;;;;;;;;;;;;8.74;58.53;101611.12;464125;112;921693;-74
2021/09/06 01:19:34;;;;;;;;;;;;;;;8.74;58.56;101612.98;455644;115;921538;-76
2021/09/06 01:20:37;;;;;;;;;;;;;;;8.71;58.64;101616.89;462496;112;921789;-74
2021/09/06 01:21:40;;;;;;;;;;;;;;;8.69;58.75;101612.67;471930;111;921584;-75
2021/09/06 01:22:48;;;;;;;;;;;;;;;8.64;58.91;101607.78;465064;112;922101;-75
2021/09/06 01:23:52;;;;;;;;;;;;;;;8.61;59.06;101607.27;462351;114;921772;-75
2021/09/06 01:24:57;;;;;;;;;;;;;;;8.60;59.19;101611.03;470492;112;921584;-75
2021/09/06 01:26:00;;;;;;;;;;;;;;;8.58;59.36;101603.05;471607;111;921589;-75
2021/09/06 01:27:04;;;;;;;;;;;;;;;8.60;59.67;101598.25;465473;112;921620;-74
2021/09/06 01:28:07;;;;;;;;;;;;;;;8.65;59.92;101608.62;462550;114;921539;-75
2021/09/06 01:29:11;;;;;;;;;;;;;;;8.69;59.98;101601.80;459527;113;921659;-74
2021/09/06 01:30:14;;;;;;;;;;;;;;;8.72;59.93;101605.00;461539;113;921646;-74
2021/09/06 01:31:19;;;;;;;;;;;;;;;8.74;59.87;101604.83;471902;111;921609;-75
2021/09/06 01:32:23;;;;;;;;;;;;;;;8.72;59.77;101607.72;471506;112;921492;-74
2021/09/06 01:33:26;;;;;;;;;;;;;;;8.68;59.70;101609.11;461069;114;921444;-75
2021/09/06 01:34:29;;;;;;;;;;;;;;;8.65;59.87;101600.47;472373;111;921527;-74
2021/09/06 01:35:34;;;;;;;;;;;;;;;8.63;60.12;101606.08;471559;111;921610;-75
2021/09/06 01:36:38;;;;;;;;;;;;;;;8.66;60.41;101600.27;464824;114;921551;-75
2021/09/06 01:37:41;;;;;;;;;;;;;;;8.68;60.54;101600.10;462379;114;921641;-73
2021/09/06 01:38:44;;;;;;;;;;;;;;;8.72;60.47;101604.15;464175;112;921595;-75
2021/09/06 01:39:48;;;;;;;;;;;;;;;8.75;60.35;101606.53;470737;112;921558;-75
2021/09/06 01:40:51;;;;;;;;;;;;;;;8.76;60.18;101608.23;471989;112;921459;-74
2021/09/06 01:41:54;;;;;;;;;;;;;;;8.73;60.08;101605.84;464596;113;921595;-73
2021/09/06 01:42:58;;;;;;;;;;;;;;;8.70;60.13;101604.34;472242;111;921487;-75
2021/09/06 01:44:01;;;;;;;;;;;;;;;8.70;60.20;101604.34;470865;112;921987;-75
2021/09/06 01:45:05;;;;;;;;;;;;;;;8.70;60.19;101598.91;472303;112;922030;-74
2021/09/06 01:46:09;;;;;;;;;;;;;;;8.71;60.29;101605.20;463740;112;921740;-74
2021/09/06 01:47:13;;;;;;;;;;;;;;;8.72;60.41;101604.15;464535;112;921704;-74
2021/09/06 01:48:17;;;;;;;;;;;;;;;8.73;60.27;101611.29;468025;112;921584;-75
2021/09/06 01:49:21;;;;;;;;;;;;;;;8.74;60.11;101610.27;461703;113;921548;-75
2021/09/06 01:50:25;;;;;;;;;;;;;;;8.71;59.90;101606.02;462957;114;921515;-74
2021/09/06 01:51:30;;;;;;;;;;;;;;;8.68;59.76;101600.95;472142;112;921481;-75
2021/09/06 01:52:33;;;;;;;;;;;;;;;8.64;59.82;101601.48;472554;112;921661;-73
2021/09/06 01:53:37;;;;;;;;;;;;;;;8.63;60.00;101605.22;462763;114;921807;-74
2021/09/06 01:54:40;;;;;;;;;;;;;;;8.65;60.07;101603.19;462185;115;921513;-75
2021/09/06 01:55:44;;;;;;;;;;;;;;;8.66;60.02;101605.70;464685;113;921581;-74
2021/09/06 01:56:49;;;;;;;;;;;;;;;8.69;59.94;101601.80;462489;113;921632;-74
2021/09/06 01:57:52;;;;;;;;;;;;;;;8.70;59.90;101603.50;461140;114;921549;-74
2021/09/06 01:58:56;;;;;;;;;;;;;;;8.69;59.72;101610.81;463682;114;921512;-73
2021/09/06 02:00:04;;;;;;;;;;;;;;;8.66;59.68;101604.86;471342;112;921556;-75
2021/09/06 02:01:07;;;;;;;;;;;;;;;8.60;59.70;101608.31;463720;112;921745;-74
2021/09/06 02:02:12;;;;;;;;;;;;;;;8.57;59.85;101604.06;462123;114;921641;-74
2021/09/06 02:03:17;;;;;;;;;;;;;;;8.56;60.02;101606.95;461805;113;921632;-74
2021/09/06 02:04:22;;;;;;;;;;;;;;;8.56;59.99;101604.23;464980;112;921591;-75
2021/09/06 02:05:26;;;;;;;;;;;;;;;8.57;59.95;101609.50;470223;111;921562;-74
2021/09/06 02:06:30;;;;;;;;;;;;;;;8.57;59.86;101614.09;452704;116;921632;-74
2021/09/06 02:07:37;;;;;;;;;;;;;;;8.55;59.57;101611.53;458155;114;921607;-74
2021/09/06 02:08:41;;;;;;;;;;;;;;;8.52;59.52;101605.62;461515;115;921523;-73
2021/09/06 02:09:45;;;;;;;;;;;;;;;8.48;59.54;101607.84;460298;114;921502;-74
2021/09/06 02:10:49;;;;;;;;;;;;;;;8.45;59.58;101610.05;465518;112;921650;-74
2021/09/06 02:11:53;;;;;;;;;;;;;;;8.43;59.70;101612.97;468751;112;921758;-73
2021/09/06 02:12:56;;;;;;;;;;;;;;;8.42;59.66;101608.55;462130;112;921624;-75
2021/09/06 02:13:59;;;;;;;;;;;;;;;8.39;59.70;101606.16;465152;112;921553;-75
2021/09/06 02:15:04;;;;;;;;;;;;;;;8.40;59.85;101609.73;462180;113;921551;-73
2021/09/06 02:16:08;;;;;;;;;;;;;;;8.40;60.05;101607.02;464491;114;921656;-73
2021/09/06 02:17:13;;;;;;;;;;;;;;;8.43;60.24;101606.69;464591;113;921714;-74
2021/09/06 02:18:17;;;;;;;;;;;;;;;8.45;60.25;101608.19;463693;114;921719;-74
2021/09/06 02:19:20;;;;;;;;;;;;;;;8.48;60.18;101613.28;464211;112;921639;-74
2021/09/06 02:20:24;;;;;;;;;;;;;;;8.49;60.11;101611.42;463763;114;921655;-74
2021/09/06 02:21:27;;;;;;;;;;;;;;;8.49;59.89;101611.42;464035;114;921685;-73
2021/09/06 02:22:32;;;;;;;;;;;;;;;8.46;59.71;101609.03;465344;112;921701;-75
2021/09/06 02:23:37;;;;;;;;;;;;;;;8.42;59.58;101613.98;462018;114;921731;-72
2021/09/06 02:24:41;;;;;;;;;;;;;;;8.36;59.55;101612.81;471089;112;921552;-74
2021/09/06 02:25:46;;;;;;;;;;;;;;;8.31;59.66;101614.36;462754;113;921703;-75
2021/09/06 02:26:49;;;;;;;;;;;;;;;8.29;59.84;101616.36;457771;114;921545;-74
2021/09/06 02:27:52;;;;;;;;;;;;;;;8.30;59.97;101613.52;453480;117;921500;-74
2021/09/06 02:28:57;;;;;;;;;;;;;;;8.31;59.92;101628.80;455256;114;921575;-73
2021/09/06 02:30:01;;;;;;;;;;;;;;;8.30;59.82;101616.23;458719;114;921627;-73
2021/09/06 02:31:05;;;;;;;;;;;;;;;8.27;59.77;101621.97;458225;114;921438;-74
2021/09/06 02:32:10;;;;;;;;;;;;;;;8.25;59.90;101620.46;453113;113;921584;-74
2021/09/06 02:33:15;;;;;;;;;;;;;;;8.24;60.14;101624.19;467540;112;921498;-74
2021/09/06 02:34:32;;;;;;;;;;;;;;;8.25;60.25;101621.31;428140;122;921953;-75
2021/09/06 02:35:35;;;;;;;;;;;;;;;8.25;60.14;101626.75;439144;117;921686;-74
2021/09/06 02:36:39;;;;;;;;;;;;;;;8.26;60.00;101624.88;467271;112;921534;-74
2021/09/06 02:37:42;;;;;;;;;;;;;;;8.23;60.01;101627.92;466529;112;921459;-75
2021/09/06 02:38:48;;;;;;;;;;;;;;;8.20;59.96;101626.42;465922;112;921567;-74
2021/09/06 02:39:51;;;;;;;;;;;;;;;8.16;59.97;101633.20;467959;112;921622;-74
2021/09/06 02:40:54;;;;;;;;;;;;;;;8.13;60.11;101630.84;465021;112;921479;-74
2021/09/06 02:42:01;;;;;;;;;;;;;;;8.11;60.21;101638.31;463964;112;921576;-74
2021/09/06 02:43:06;;;;;;;;;;;;;;;8.08;60.30;101633.23;465542;112;921529;-74
2021/09/06 02:44:10;;;;;;;;;;;;;;;8.07;60.46;101638.83;465502;112;921429;-74
2021/09/06 02:45:14;;;;;;;;;;;;;;;8.05;60.50;101643.61;465731;112;921564;-75
2021/09/06 02:46:19;;;;;;;;;;;;;;;8.04;60.55;101641.91;463676;112;921663;-75
2021/09/06 02:47:23;;;;;;;;;;;;;;;8.03;60.70;101640.20;463954;112;921663;-75
2021/09/06 02:48:26;;;;;;;;;;;;;;;8.04;60.79;101647.34;462808;112;921605;-75
2021/09/06 02:49:30;;;;;;;;;;;;;;;8.05;60.84;101651.76;442265;117;921688;-73
2021/09/06 02:50:34;;;;;;;;;;;;;;;8.06;60.90;101653.42;439041;117;921695;-75
2021/09/06 02:51:39;;;;;;;;;;;;;;;8.07;60.89;101655.13;445601;116;921574;-74
2021/09/06 02:52:43;;;;;;;;;;;;;;;8.05;60.82;101654.47;455519;114;921595;-75
2021/09/06 02:53:47;;;;;;;;;;;;;;;8.04;60.76;101652.77;457407;115;921615;-74
2021/09/06 02:54:51;;;;;;;;;;;;;;;8.03;60.81;101654.64;452256;116;922049;-74
2021/09/06 02:55:54;;;;;;;;;;;;;;;8.03;60.96;101651.07;458814;112;921738;-75
2021/09/06 02:56:57;;;;;;;;;;;;;;;8.03;61.06;101661.94;463595;113;921760;-74
2021/09/06 02:58:00;;;;;;;;;;;;;;;8.04;61.02;101653.63;463901;112;921633;-74
2021/09/06 02:59:04;;;;;;;;;;;;;;;8.04;60.96;101660.92;464704;114;921584;-75
2021/09/06 03:00:08;;;;;;;;;;;;;;;8.04;60.95;101660.92;464778;112;921523;-75
2021/09/06 03:01:11;;;;;;;;;;;;;;;8.04;60.92;101659.05;464077;112;921689;-75
2021/09/06 03:02:15;;;;;;;;;;;;;;;8.05;60.86;101662.62;456406;115;921614;-75
2021/09/06 03:03:18;;;;;;;;;;;;;;;8.05;60.82;101662.62;456515;115;921631;-74
2021/09/06 03:04:22;;;;;;;;;;;;;;;8.06;60.71;101661.58;456796;114;921650;-73
2021/09/06 03:05:26;;;;;;;;;;;;;;;8.05;60.66;101662.62;456882;112;921574;-74
2021/09/06 03:06:29;;;;;;;;;;;;;;;8.02;60.63;101673.81;464255;112;921569;-73
2021/09/06 03:07:33;;;;;;;;;;;;;;;8.00;60.66;101671.26;464773;112;921721;-73
2021/09/06 03:08:37;;;;;;;;;;;;;;;7.96;60.62;101664.48;457650;114;921718;-74
2021/09/06 03:09:40;;;;;;;;;;;;;;;7.93;60.51;101662.98;458319;112;921600;-74
2021/09/06 03:10:44;;;;;;;;;;;;;;;7.91;60.54;101664.15;465164;112;921713;-74
2021/09/06 03:11:47;;;;;;;;;;;;;;;7.89;60.47;101669.74;463413;112;921636;-74
2021/09/06 03:12:50;;;;;;;;;;;;;;;7.86;60.49;101672.81;463008;112;921573;-74
2021/09/06 03:13:54;;;;;;;;;;;;;;;7.85;60.38;101675.69;466205;112;921567;-75
2021/09/06 03:14:57;;;;;;;;;;;;;;;7.83;60.44;101678.56;465236;112;921544;-73
2021/09/06 03:16:01;;;;;;;;;;;;;;;7.84;60.42;101671.27;465495;112;921551;-75
2021/09/06 03:17:04;;;;;;;;;;;;;;;7.83;60.40;101681.28;465875;112;921714;-74
2021/09/06 03:18:07;;;;;;;;;;;;;;;7.84;60.42;101682.98;466527;112;921595;-74
2021/09/06 03:19:28;;;;;;;;;;;;;;;7.84;60.32;101680.27;457795;114;921750;-74
2021/09/06 03:20:34;;;;;;;;;;;;;;;7.85;60.34;101683.84;457999;114;921885;-74
2021/09/06 03:21:37;;;;;;;;;;;;;;;7.86;60.36;101689.11;457451;114;921937;-73
2021/09/06 03:22:42;;;;;;;;;;;;;;;7.86;60.41;101685.54;465270;112;921667;-73
2021/09/06 03:23:46;;;;;;;;;;;;;;;7.86;60.47;101685.54;465269;112;921620;-74
2021/09/06 03:24:49;;;;;;;;;;;;;;;7.88;60.47;101680.80;465979;112;921622;-73
2021/09/06 03:25:53;;;;;;;;;;;;;;;7.90;60.57;101681.45;465876;112;921382;-73
2021/09/06 03:26:56;;;;;;;;;;;;;;;7.93;60.46;101683.84;461770;112;921865;-75
2021/09/06 03:27:59;;;;;;;;;;;;;;;7.95;60.32;101689.94;454095;115;921516;-74
2021/09/06 03:29:03;;;;;;;;;;;;;;;7.93;60.25;101686.56;453852;115;921564;-74
2021/09/06 03:30:07;;;;;;;;;;;;;;;7.93;60.14;101686.56;453238;114;921686;-74
2021/09/06 03:31:11;;;;;;;;;;;;;;;7.91;60.12;101694.87;453610;114;921626;-74
2021/09/06 03:32:14;;;;;;;;;;;;;;;7.91;60.17;101691.30;463108;114;921604;-74
2021/09/06 03:33:17;;;;;;;;;;;;;;;7.91;60.40;101686.73;455065;114;921682;-74
2021/09/06 03:34:22;;;;;;;;;;;;;;;7.95;60.47;101692.66;453795;114;921497;-75
2021/09/06 03:35:26;;;;;;;;;;;;;;;7.98;60.34;101689.61;463076;114;921541;-75
2021/09/06 03:36:30;;;;;;;;;;;;;;;8.01;60.15;101697.41;465547;114;921566;-74
2021/09/06 03:37:33;;;;;;;;;;;;;;;8.02;60.01;101692.83;454454;115;921694;-74
2021/09/06 03:38:39;;;;;;;;;;;;;;;8.04;60.05;101699.80;443613;117;921724;-74
2021/09/06 03:39:43;;;;;;;;;;;;;;;8.06;60.16;101703.17;442042;119;921724;-73
2021/09/06 03:40:47;;;;;;;;;;;;;;;8.08;60.21;101698.42;464179;113;921785;-73
2021/09/06 03:41:51;;;;;;;;;;;;;;;8.10;60.19;101699.11;464346;113;921583;-74
2021/09/06 03:42:56;;;;;;;;;;;;;;;8.11;60.08;101702.65;464544;112;921536;-74
2021/09/06 03:43:59;;;;;;;;;;;;;;;8.11;60.11;101700.78;464015;114;921502;-75
2021/09/06 03:45:03;;;;;;;;;;;;;;;8.13;60.09;101703.34;463310;112;921710;-75
2021/09/06 03:46:08;;;;;;;;;;;;;;;8.14;60.10;101705.04;463328;112;921719;-73
2021/09/06 03:47:12;;;;;;;;;;;;;;;8.15;60.09;101704.03;455469;115;921600;-74
2021/09/06 03:48:15;;;;;;;;;;;;;;;8.15;59.99;101712.17;453085;115;921683;-74
2021/09/06 03:49:20;;;;;;;;;;;;;;;8.14;59.89;101705.89;453246;116;921632;-75
2021/09/06 03:50:24;;;;;;;;;;;;;;;8.14;59.80;101707.76;453697;115;921642;-74
2021/09/06 03:51:27;;;;;;;;;;;;;;;8.13;59.75;101715.05;457258;115;921490;-74
2021/09/06 03:52:30;;;;;;;;;;;;;;;8.12;59.69;101709.78;455845;115;921592;-74
2021/09/06 03:53:34;;;;;;;;;;;;;;;8.11;59.62;101711.65;456782;114;921744;-74
2021/09/06 03:54:37;;;;;;;;;;;;;;;8.12;59.70;101710.64;456764;115;921700;-75
2021/09/06 03:55:41;;;;;;;;;;;;;;;8.15;59.71;101718.46;457945;114;921572;-74
2021/09/06 03:56:44;;;;;;;;;;;;;;;8.17;59.74;101715.55;458480;114;921660;-73
2021/09/06 03:57:48;;;;;;;;;;;;;;;8.20;59.77;101717.94;458083;115;921586;-72
2021/09/06 03:58:52;;;;;;;;;;;;;;;8.20;59.61;101716.08;457876;114;921568;-71
2021/09/06 03:59:55;;;;;;;;;;;;;;;8.22;59.55;101718.59;458073;115;921535;-74
2021/09/06 04:00:58;;;;;;;;;;;;;;;8.24;59.54;101719.28;457262;115;921532;-73
2021/09/06 04:02:04;;;;;;;;;;;;;;;8.26;59.49;101726.26;457790;115;921630;-73
2021/09/06 04:03:07;;;;;;;;;;;;;;;8.27;59.47;101721.67;457138;115;921558;-73
2021/09/06 04:04:11;;;;;;;;;;;;;;;8.30;59.49;101726.78;461607;113;921585;-73
2021/09/06 04:05:14;;;;;;;;;;;;;;;8.31;59.41;101723.05;446534;117;921701;-74
2021/09/06 04:06:18;;;;;;;;;;;;;;;8.33;59.46;101729.14;446915;115;921700;-73
2021/09/06 04:07:22;;;;;;;;;;;;;;;8.36;59.49;101731.53;463555;112;921600;-73
2021/09/06 04:08:27;;;;;;;;;;;;;;;8.40;59.49;101724.73;463591;112;921603;-74
2021/09/06 04:09:31;;;;;;;;;;;;;;;8.42;59.40;101728.13;445142;117;921610;-74
2021/09/06 04:10:40;;;;;;;;;;;;;;;8.43;59.30;101726.27;447088;116;921680;-79
2021/09/06 04:11:41;;;;;;;;;;;;;;;8.44;59.28;101727.94;463148;114;921660;-81
2021/09/06 04:12:45;;;;;;;;;;;;;;;8.43;59.15;101731.70;454897;115;922066;-75
2021/09/06 04:13:49;;;;;;;;;;;;;;;8.43;59.06;101728.98;463046;113;921628;-75
2021/09/06 04:14:52;;;;;;;;;;;;;;;8.43;59.10;101731.70;447887;117;921600;-81
2021/09/06 04:15:56;;;;;;;;;;;;;;;8.44;59.14;101727.94;448825;116;921576;-74
2021/09/06 04:17:00;;;;;;;;;;;;;;;8.47;59.17;101736.61;457237;115;921748;-72
2021/09/06 04:18:06;;;;;;;;;;;;;;;8.49;59.08;101734.55;449052;115;921683;-82
2021/09/06 04:19:10;;;;;;;;;;;;;;;8.50;59.07;101728.09;456693;114;921565;-73
2021/09/06 04:20:13;;;;;;;;;;;;;;;8.50;59.03;101736.25;464351;112;921675;-75
2021/09/06 04:21:17;;;;;;;;;;;;;;;8.49;59.12;101731.83;455253;115;921558;-75
2021/09/06 04:22:22;;;;;;;;;;;;;;;8.50;59.18;101738.11;454691;114;921612;-73
2021/09/06 04:23:26;;;;;;;;;;;;;;;8.50;59.26;101728.09;463902;113;921684;-75
2021/09/06 04:24:31;;;;;;;;;;;;;;;8.50;59.30;101733.53;459561;115;921553;-74
2021/09/06 04:25:35;;;;;;;;;;;;;;;8.52;59.39;101738.80;459069;113;921541;-75
2021/09/06 04:26:38;;;;;;;;;;;;;;;8.52;59.46;101736.94;460667;113;921544;-73
2021/09/06 04:27:42;;;;;;;;;;;;;;;8.52;59.46;101731.50;465789;111;921594;-75
2021/09/06 04:28:47;;;;;;;;;;;;;;;8.54;59.48;101734.91;468447;111;921539;-75
2021/09/06 04:29:52;;;;;;;;;;;;;;;8.55;59.53;101739.30;468800;111;921458;-73
2021/09/06 04:30:56;;;;;;;;;;;;;;;8.55;59.52;101736.58;468770;111;921588;-74
2021/09/06 04:32:02;;;;;;;;;;;;;;;8.57;59.49;101739.13;466362;111;921635;-74
2021/09/06 04:33:05;;;;;;;;;;;;;;;8.58;59.46;101727.23;457710;114;921779;-74
2021/09/06 04:34:09;;;;;;;;;;;;;;;8.59;59.42;101729.80;460753;113;921299;-75
2021/09/06 04:35:12;;;;;;;;;;;;;;;8.61;59.49;101735.03;468751;111;921318;-75
2021/09/06 04:36:16;;;;;;;;;;;;;;;8.64;59.59;101735.55;466766;113;921437;-75
2021/09/06 04:37:21;;;;;;;;;;;;;;;8.66;59.66;101728.05;466179;112;921655;-78
2021/09/06 04:38:24;;;;;;;;;;;;;;;8.70;59.56;101732.14;466019;112;921632;-74
2021/09/06 04:39:28;;;;;;;;;;;;;;;8.73;59.58;101736.36;466652;112;921625;-74
2021/09/06 04:40:33;;;;;;;;;;;;;;;8.74;59.60;101730.77;465831;113;921867;-72
2021/09/06 04:41:36;;;;;;;;;;;;;;;8.81;59.68;101730.06;466482;114;921695;-73
2021/09/06 04:42:40;;;;;;;;;;;;;;;8.84;59.66;101730.55;466798;112;921609;-74
2021/09/06 04:43:45;;;;;;;;;;;;;;;8.88;59.65;101729.16;466249;112;922106;-75
2021/09/06 04:44:49;;;;;;;;;;;;;;;8.92;59.69;101729.68;464209;113;921520;-74
2021/09/06 04:45:53;;;;;;;;;;;;;;;8.95;59.64;101727.45;465639;112;921711;-74
2021/09/06 04:46:57;;;;;;;;;;;;;;;9.00;59.64;101726.91;465048;112;921651;-75
2021/09/06 04:48:00;;;;;;;;;;;;;;;9.02;59.68;101735.76;468408;112;921720;-74
2021/09/06 04:49:04;;;;;;;;;;;;;;;9.04;59.74;101739.16;458236;114;921678;-75
2021/09/06 04:50:08;;;;;;;;;;;;;;;9.05;59.78;101735.39;459149;114;921661;-72
2021/09/06 04:51:12;;;;;;;;;;;;;;;9.09;59.90;101728.59;467088;112;921525;-73
2021/09/06 04:52:16;;;;;;;;;;;;;;;9.12;59.88;101730.94;466620;112;921662;-72
2021/09/06 04:53:19;;;;;;;;;;;;;;;9.14;59.90;101728.91;466656;112;921426;-73
2021/09/06 04:54:23;;;;;;;;;;;;;;;9.16;59.94;101729.55;467882;112;921790;-73
2021/09/06 04:55:26;;;;;;;;;;;;;;;9.18;59.89;101724.80;459883;114;921646;-74
2021/09/06 04:56:29;;;;;;;;;;;;;;;9.20;59.88;101734.49;454337;116;921458;-73
2021/09/06 04:57:34;;;;;;;;;;;;;;;9.23;59.91;101730.55;458255;112;921906;-73
2021/09/06 04:58:38;;;;;;;;;;;;;;;9.27;60.01;101731.87;466607;112;921562;-73
2021/09/06 04:59:41;;;;;;;;;;;;;;;9.31;60.02;101738.69;464227;112;921669;-74
2021/09/06 05:00:45;;;;;;;;;;;;;;;9.35;60.01;101734.57;467888;114;922254;-74
2021/09/06 05:01:49;;;;;;;;;;;;;;;9.38;60.05;101728.75;458439;114;921712;-74
2021/09/06 05:02:52;;;;;;;;;;;;;;;9.43;60.10;101733.66;459083;114;921774;-73
2021/09/06 05:03:56;;;;;;;;;;;;;;;9.45;60.13;101727.02;468375;112;921571;-73
2021/09/06 05:04:59;;;;;;;;;;;;;;;9.48;60.13;101725.83;468151;112;921908;-72
2021/09/06 05:06:03;;;;;;;;;;;;;;;9.51;60.16;101726.30;467637;112;921631;-73
2021/09/06 05:07:06;;;;;;;;;;;;;;;9.56;60.30;101740.22;467181;112;921597;-71
2021/09/06 05:08:10;;;;;;;;;;;;;;;9.60;60.26;101738.83;459635;114;921587;-73
2021/09/06 05:09:13;;;;;;;;;;;;;;;9.66;60.26;101737.26;459149;114;921786;-72
2021/09/06 05:10:17;;;;;;;;;;;;;;;9.71;60.15;101740.28;467415;112;921614;-72
2021/09/06 05:11:20;;;;;;;;;;;;;;;9.75;60.08;101735.34;468622;112;921555;-74
2021/09/06 05:12:26;;;;;;;;;;;;;;;9.79;60.00;101742.11;468883;112;921535;-74
2021/09/06 05:13:30;;;;;;;;;;;;;;;9.83;60.15;101744.28;454919;114;921686;-74
2021/09/06 05:14:34;;;;;;;;;;;;;;;9.85;60.25;101738.67;450669;114;921612;-73
2021/09/06 05:15:38;;;;;;;;;;;;;;;9.89;60.33;101742.71;453963;116;921628;-73
2021/09/06 05:16:41;;;;;;;;;;;;;;;9.91;60.40;101738.80;463240;112;921679;-73
2021/09/06 05:17:44;;;;;;;;;;;;;;;9.96;60.43;101738.23;466686;112;921520;-74
2021/09/06 05:18:48;;;;;;;;;;;;;;;10.00;60.43;101736.84;468320;112;921473;-73
2021/09/06 05:19:51;;;;;;;;;;;;;;;10.04;60.39;101735.43;467779;112;921620;-73
2021/09/06 05:20:56;;;;;;;;;;;;;;;10.09;60.29;101735.72;467343;112;921704;-74
2021/09/06 05:22:00;;;;;;;;;;;;;;;10.16;60.24;101741.30;465689;112;921964;-73
2021/09/06 05:23:03;;;;;;;;;;;;;;;10.21;60.24;101730.72;466423;112;921564;-70
2021/09/06 05:24:07;;;;;;;;;;;;;;;10.24;60.12;101742.12;468501;112;921513;-72
2021/09/06 05:25:11;;;;;;;;;;;;;;;10.29;60.07;101734.23;467758;112;921595;-73
2021/09/06 05:26:15;;;;;;;;;;;;;;;10.32;60.03;101739.30;467792;112;921507;-72
2021/09/06 05:27:20;;;;;;;;;;;;;;;10.35;60.01;101736.22;467969;112;921484;-73
2021/09/06 05:28:24;;;;;;;;;;;;;;;10.39;60.03;101737.53;468394;112;922124;-71
2021/09/06 05:29:27;;;;;;;;;;;;;;;10.41;59.90;101730.03;467680;112;921569;-74